Time;durP1;ratioP1;P1;durP2;ratioP2;P2;SDS_P1;SDS_P2;PMS_P1;PMS_P2;Temp;Humidity;BMP_temperature;BMP_pressure;BME280_temperature;BME280_humidity;BME280_pressure;Samples;Min_cycle;Max_cycle;Signal;HPM_P1;HPM_P2
2022/09/24 00:03:40;;;;;;;;;;;15.00;99.90;;;;;;8399233;28;20026;-79
2022/09/24 00:07:41;;;;;;;;;;;15.00;99.90;;;;;;8398479;28;20379;-79
2022/09/24 00:11:44;;;;;;;;;;;14.90;99.90;;;;;;8397996;28;20402;-79
2022/09/24 00:15:47;;;;;;;;;;;14.90;99.90;;;;;;8399231;28;19920;-79
2022/09/24 00:19:49;;;;;;;;;;;14.90;99.90;;;;;;8398883;28;19920;-80
2022/09/24 00:23:52;;;;;;;;;;;14.90;99.90;;;;;;8414615;28;19950;-79
2022/09/24 00:27:53;;;;;;;;;;;14.90;99.90;;;;;;8409303;28;20015;-79
2022/09/24 00:31:55;;;;;;;;;;;14.90;99.90;;;;;;8398637;28;19924;-79
2022/09/24 00:35:57;;;;;;;;;;;14.90;99.90;;;;;;8401565;28;19923;-79
2022/09/24 00:39:59;;;;;;;;;;;14.80;99.90;;;;;;8396755;28;19963;-79
2022/09/24 00:44:20;;;;;;;;;;;14.80;99.90;;;;;;8400413;28;19931;-79
2022/09/24 00:48:22;;;;;;;;;;;14.80;99.90;;;;;;8393702;28;19920;-79
2022/09/24 00:52:25;;;;;;;;;;;14.80;99.90;;;;;;8400176;28;19935;-79
2022/09/24 00:56:27;;;;;;;;;;;14.70;99.90;;;;;;8415283;28;20503;-79
2022/09/24 01:00:30;;;;;;;;;;;14.70;99.90;;;;;;8412106;28;21439;-80
2022/09/24 01:04:31;;;;;;;;;;;14.70;99.90;;;;;;8409324;27;20331;-79
2022/09/24 01:08:33;;;;;;;;;;;14.70;99.90;;;;;;8407204;28;19921;-79
2022/09/24 01:12:50;;;;;;;;;;;14.60;99.90;;;;;;8419786;28;19919;-80
2022/09/24 01:16:52;;;;;;;;;;;14.60;99.90;;;;;;8401122;28;20006;-79
2022/09/24 01:20:54;;;;;;;;;;;14.60;99.90;;;;;;8432103;27;20291;-79
2022/09/24 01:25:08;;;;;;;;;;;14.70;99.90;;;;;;8416140;28;19920;-79
2022/09/24 01:29:16;;;;;;;;;;;14.70;99.90;;;;;;8420052;28;20317;-79
2022/09/24 01:33:20;;;;;;;;;;;14.70;99.90;;;;;;8410185;28;19926;-80
2022/09/24 01:37:22;;;;;;;;;;;14.70;99.90;;;;;;8443914;27;19920;-79
2022/09/24 01:41:24;;;;;;;;;;;14.70;99.90;;;;;;8417731;28;19985;-79
2022/09/24 01:45:30;;;;;;;;;;;14.60;99.90;;;;;;8398614;28;19943;-79
2022/09/24 01:49:32;;;;;;;;;;;14.70;99.90;;;;;;8446207;27;19927;-79
2022/09/24 01:53:53;;;;;;;;;;;14.60;99.90;;;;;;8403039;28;19920;-79
2022/09/24 01:57:58;;;;;;;;;;;14.60;99.90;;;;;;8430167;28;20374;-79
2022/09/24 02:02:03;;;;;;;;;;;14.60;99.90;;;;;;8407204;28;20263;-79
2022/09/24 02:06:09;;;;;;;;;;;14.60;99.90;;;;;;8433210;28;20605;-79
2022/09/24 02:10:15;;;;;;;;;;;14.60;99.90;;;;;;8424810;28;20156;-79
2022/09/24 02:14:16;;;;;;;;;;;14.60;99.90;;;;;;8412786;28;19924;-79
2022/09/24 02:18:20;;;;;;;;;;;14.50;99.90;;;;;;8405077;28;19920;-79
2022/09/24 02:22:23;;;;;;;;;;;14.50;99.90;;;;;;8405693;28;19930;-78
2022/09/24 02:26:24;;;;;;;;;;;14.50;99.90;;;;;;8401539;28;19928;-79
2022/09/24 02:30:26;;;;;;;;;;;14.40;99.90;;;;;;8402508;28;19923;-80
2022/09/24 02:34:37;;;;;;;;;;;14.40;99.90;;;;;;8435204;27;19933;-78
2022/09/24 02:38:38;;;;;;;;;;;14.40;99.90;;;;;;8402780;28;20349;-79
2022/09/24 02:42:41;;;;;;;;;;;14.30;99.90;;;;;;8404230;28;20314;-79
2022/09/24 02:46:43;;;;;;;;;;;14.30;99.90;;;;;;8401220;28;20203;-80
2022/09/24 02:50:45;;;;;;;;;;;14.30;99.90;;;;;;8406511;28;20302;-79
2022/09/24 02:54:46;;;;;;;;;;;14.30;99.90;;;;;;8404301;28;19950;-79
2022/09/24 02:58:48;;;;;;;;;;;14.30;99.90;;;;;;8402230;28;20291;-79
2022/09/24 03:02:50;;;;;;;;;;;14.30;99.90;;;;;;8398741;28;19920;-79
2022/09/24 03:06:52;;;;;;;;;;;14.40;99.90;;;;;;8400240;28;20042;-79
2022/09/24 03:10:54;;;;;;;;;;;14.40;99.90;;;;;;8403560;28;19920;-80
2022/09/24 03:14:56;;;;;;;;;;;14.40;99.90;;;;;;8394527;28;19923;-79
2022/09/24 03:18:58;;;;;;;;;;;14.40;99.90;;;;;;8391098;28;19962;-80
2022/09/24 03:22:59;;;;;;;;;;;14.40;99.90;;;;;;8403926;28;19924;-79
2022/09/24 03:27:01;;;;;;;;;;;14.40;99.90;;;;;;8425165;28;19924;-79
2022/09/24 03:31:03;;;;;;;;;;;14.40;99.90;;;;;;8403332;28;19920;-79
2022/09/24 03:35:05;;;;;;;;;;;14.40;99.90;;;;;;8405671;28;19932;-80
2022/09/24 03:39:07;;;;;;;;;;;14.40;99.90;;;;;;8420094;28;19926;-80
2022/09/24 03:43:08;;;;;;;;;;;14.40;99.90;;;;;;8414969;28;19928;-80
2022/09/24 03:47:10;;;;;;;;;;;14.40;99.90;;;;;;8403225;28;19934;-80
2022/09/24 03:51:13;;;;;;;;;;;14.40;99.90;;;;;;8401834;28;19932;-80
2022/09/24 03:55:15;;;;;;;;;;;14.30;99.90;;;;;;8434525;27;20241;-79
2022/09/24 03:59:16;;;;;;;;;;;14.40;99.90;;;;;;8400664;28;19924;-79
2022/09/24 04:03:19;;;;;;;;;;;14.40;99.90;;;;;;8400190;28;19929;-80
2022/09/24 04:07:21;;;;;;;;;;;14.40;99.90;;;;;;8409961;28;19936;-80
2022/09/24 04:11:23;;;;;;;;;;;14.30;99.90;;;;;;8400537;28;19928;-79
2022/09/24 04:15:25;;;;;;;;;;;14.40;99.90;;;;;;8399910;28;19924;-79
2022/09/24 04:19:28;;;;;;;;;;;14.30;99.90;;;;;;8400253;28;20013;-78
2022/09/24 04:23:32;;;;;;;;;;;14.30;99.90;;;;;;8397888;28;20328;-79
2022/09/24 04:27:35;;;;;;;;;;;14.30;99.90;;;;;;8400832;28;19935;-79
2022/09/24 04:31:38;;;;;;;;;;;14.40;99.90;;;;;;8427462;27;19928;-79
2022/09/24 04:35:40;;;;;;;;;;;14.40;99.90;;;;;;8397339;28;19920;-79
2022/09/24 04:39:41;;;;;;;;;;;14.40;99.90;;;;;;8388721;28;19924;-79
2022/09/24 04:43:45;;;;;;;;;;;14.40;99.90;;;;;;8396276;28;20028;-79
2022/09/24 04:47:56;;;;;;;;;;;14.40;99.90;;;;;;8408675;28;20291;-79
2022/09/24 04:51:58;;;;;;;;;;;14.40;99.90;;;;;;8405702;28;20291;-79
2022/09/24 05:06:06;;;;;;;;;;;14.40;99.90;;;;;;8412613;28;20270;-79
2022/09/24 05:10:08;;;;;;;;;;;14.40;99.90;;;;;;8422834;28;19934;-79
2022/09/24 05:14:09;;;;;;;;;;;14.30;99.90;;;;;;8426254;28;19920;-79
2022/09/24 05:18:11;;;;;;;;;;;14.40;99.90;;;;;;8417763;28;20314;-79
2022/09/24 05:22:13;;;;;;;;;;;14.40;99.90;;;;;;8418403;28;19929;-79
2022/09/24 05:30:35;;;;;;;;;;;14.40;99.90;;;;;;8423525;28;19927;-79
2022/09/24 05:34:36;;;;;;;;;;;14.30;99.90;;;;;;8420287;28;19924;-80
2022/09/24 05:38:38;;;;;;;;;;;14.40;99.90;;;;;;8423941;28;20030;-79
2022/09/24 05:42:42;;;;;;;;;;;14.40;99.90;;;;;;8421097;28;19981;-79
2022/09/24 05:46:43;;;;;;;;;;;14.40;99.90;;;;;;8423357;28;19927;-79
2022/09/24 05:50:45;;;;;;;;;;;14.40;99.90;;;;;;8429420;28;19931;-79
2022/09/24 05:54:47;;;;;;;;;;;14.40;99.90;;;;;;8421916;28;20293;-79
2022/09/24 05:58:49;;;;;;;;;;;14.40;99.90;;;;;;8423111;28;19928;-79
2022/09/24 06:02:51;;;;;;;;;;;14.40;99.90;;;;;;8426814;28;19945;-79
2022/09/24 06:06:52;;;;;;;;;;;14.40;99.90;;;;;;8434161;28;19924;-79
2022/09/24 06:11:01;;;;;;;;;;;14.40;99.90;;;;;;8424506;28;20560;-79
2022/09/24 06:15:03;;;;;;;;;;;14.40;99.90;;;;;;8421817;28;20379;-79
2022/09/24 06:19:04;;;;;;;;;;;14.40;99.90;;;;;;8428171;28;20752;-79
2022/09/24 06:23:06;;;;;;;;;;;14.40;99.90;;;;;;8410131;28;20569;-79
2022/09/24 06:27:08;;;;;;;;;;;14.40;99.90;;;;;;8412004;28;20383;-79
2022/09/24 06:31:11;;;;;;;;;;;14.50;99.90;;;;;;8405874;28;19920;-79
2022/09/24 06:35:13;;;;;;;;;;;14.40;99.90;;;;;;8413441;28;19955;-79
2022/09/24 06:39:14;;;;;;;;;;;14.40;99.90;;;;;;8411360;28;19920;-79
2022/09/24 06:43:19;;;;;;;;;;;14.40;99.90;;;;;;8412282;28;19926;-79
2022/09/24 06:47:21;;;;;;;;;;;14.40;99.90;;;;;;8412242;28;19932;-80
2022/09/24 06:51:22;;;;;;;;;;;14.50;99.90;;;;;;8421306;28;19924;-80
2022/09/24 06:55:24;;;;;;;;;;;14.50;99.90;;;;;;8423006;28;19927;-79
2022/09/24 06:59:26;;;;;;;;;;;14.50;99.90;;;;;;8419906;28;20011;-79
2022/09/24 07:03:29;;;;;;;;;;;14.40;99.90;;;;;;8410017;28;20038;-79
2022/09/24 07:07:34;;;;;;;;;;;14.40;99.90;;;;;;8401538;28;20367;-79
2022/09/24 07:11:36;;;;;;;;;;;14.50;99.90;;;;;;8411665;28;19928;-79
2022/09/24 07:15:38;;;;;;;;;;;14.50;99.90;;;;;;8402520;28;20490;-79
2022/09/24 07:19:40;;;;;;;;;;;14.40;99.90;;;;;;8398868;28;20319;-79
2022/09/24 07:23:42;;;;;;;;;;;14.50;99.90;;;;;;8398957;28;19928;-79
2022/09/24 07:27:44;;;;;;;;;;;14.50;99.90;;;;;;8401208;28;19928;-79
2022/09/24 07:31:45;;;;;;;;;;;14.50;99.90;;;;;;8404073;28;20016;-79
2022/09/24 07:35:47;;;;;;;;;;;14.50;99.90;;;;;;8399418;28;19934;-79
2022/09/24 07:39:49;;;;;;;;;;;14.50;99.90;;;;;;8402585;28;20290;-79
2022/09/24 07:43:50;;;;;;;;;;;14.50;99.90;;;;;;8404052;28;19930;-79
2022/09/24 07:47:59;;;;;;;;;;;14.50;99.90;;;;;;8402297;28;20042;-79
2022/09/24 07:52:01;;;;;;;;;;;14.50;99.90;;;;;;8399147;28;19947;-79
2022/09/24 08:06:11;;;;;;;;;;;14.60;99.90;;;;;;8400922;28;19922;-79
2022/09/24 08:10:13;;;;;;;;;;;14.60;99.90;;;;;;8430743;27;20358;-79
2022/09/24 08:14:14;;;;;;;;;;;14.60;99.90;;;;;;8398415;28;20413;-79
2022/09/24 08:18:16;;;;;;;;;;;14.60;99.90;;;;;;8394653;28;19920;-79
2022/09/24 08:22:17;;;;;;;;;;;14.60;99.90;;;;;;8406971;28;19928;-79
2022/09/24 08:26:19;;;;;;;;;;;14.60;99.90;;;;;;8406423;28;19923;-79
2022/09/24 08:30:21;;;;;;;;;;;14.60;99.90;;;;;;8399529;28;20019;-79
2022/09/24 08:34:22;;;;;;;;;;;14.60;99.90;;;;;;8399814;28;19927;-79
2022/09/24 08:38:24;;;;;;;;;;;14.60;99.90;;;;;;8392592;28;20557;-79
2022/09/24 08:42:25;;;;;;;;;;;14.60;99.90;;;;;;8394576;28;20062;-79
2022/09/24 08:51:00;;;;;;;;;;;14.60;99.90;;;;;;8407453;28;20679;-80
2022/09/24 08:55:12;;;;;;;;;;;14.70;99.90;;;;;;8395901;28;19982;-79
2022/09/24 08:59:20;;;;;;;;;;;14.60;99.90;;;;;;8399155;28;19924;-80
2022/09/24 09:03:34;;;;;;;;;;;14.60;99.90;;;;;;8398168;28;19924;-79
2022/09/24 09:07:41;;;;;;;;;;;14.60;99.90;;;;;;8407264;28;19920;-79
2022/09/24 09:11:46;;;;;;;;;;;14.60;99.90;;;;;;8410024;28;19923;-80
2022/09/24 09:15:56;;;;;;;;;;;14.70;99.90;;;;;;8436086;27;20011;-78
2022/09/24 09:20:00;;;;;;;;;;;14.60;99.90;;;;;;8404435;28;19966;-79
2022/09/24 09:24:02;;;;;;;;;;;14.70;99.90;;;;;;8410006;28;20376;-79
2022/09/24 09:28:14;;;;;;;;;;;14.70;99.90;;;;;;8406521;28;19919;-79
2022/09/24 09:32:25;;;;;;;;;;;14.70;99.90;;;;;;8417037;28;19924;-78
2022/09/24 09:36:33;;;;;;;;;;;14.70;99.90;;;;;;8401352;28;20378;-79
2022/09/24 09:40:44;;;;;;;;;;;14.70;99.90;;;;;;8397731;28;19934;-78
2022/09/24 09:44:46;;;;;;;;;;;14.70;99.90;;;;;;8395550;28;19997;-78
2022/09/24 09:48:51;;;;;;;;;;;14.70;99.90;;;;;;8401300;28;20710;-79
2022/09/24 09:52:54;;;;;;;;;;;14.80;99.90;;;;;;8404832;28;19920;-79
2022/09/24 09:56:55;;;;;;;;;;;14.90;99.90;;;;;;8403392;28;19951;-79
2022/09/24 10:01:05;;;;;;;;;;;14.80;99.90;;;;;;8408766;28;19920;-79
2022/09/24 10:05:17;;;;;;;;;;;14.80;99.90;;;;;;8402010;28;20375;-79
2022/09/24 10:09:22;;;;;;;;;;;14.90;99.90;;;;;;8404510;28;19934;-80
2022/09/24 10:13:24;;;;;;;;;;;14.90;99.90;;;;;;8402563;28;19946;-79
2022/09/24 10:17:28;;;;;;;;;;;14.90;99.90;;;;;;8399715;28;19975;-79
2022/09/24 10:21:34;;;;;;;;;;;14.90;99.90;;;;;;8399639;28;20298;-79
2022/09/24 10:25:36;;;;;;;;;;;14.90;99.90;;;;;;8431586;27;19925;-80
2022/09/24 10:33:59;;;;;;;;;;;15.00;99.90;;;;;;8396311;28;19942;-80
2022/09/24 10:38:01;;;;;;;;;;;15.00;99.90;;;;;;8401143;28;20396;-80
2022/09/24 10:42:04;;;;;;;;;;;15.10;99.90;;;;;;8400079;28;19928;-80
2022/09/24 10:46:24;;;;;;;;;;;15.10;99.90;;;;;;8400338;28;20003;-80
2022/09/24 10:50:41;;;;;;;;;;;15.10;99.90;;;;;;8401254;28;20367;-79
2022/09/24 10:54:43;;;;;;;;;;;15.20;99.90;;;;;;8398969;28;19934;-79
2022/09/24 10:59:00;;;;;;;;;;;15.20;99.90;;;;;;8399229;28;19931;-79
2022/09/24 11:03:23;;;;;;;;;;;15.20;99.90;;;;;;8398482;28;19931;-79
2022/09/24 11:07:44;;;;;;;;;;;15.20;99.90;;;;;;8407034;28;19928;-79
2022/09/24 11:11:46;;;;;;;;;;;15.20;99.90;;;;;;8398366;28;20121;-79
2022/09/24 11:16:07;;;;;;;;;;;15.20;99.90;;;;;;8399146;28;19963;-79
2022/09/24 11:20:18;;;;;;;;;;;15.20;99.90;;;;;;8404522;28;20298;-79
2022/09/24 11:39:50;;;;;;;;;;;15.20;99.90;;;;;;8395043;28;20309;-79
2022/09/24 11:44:12;;;;;;;;;;;15.20;99.90;;;;;;8399173;28;19973;-79
2022/09/24 11:58:23;;;;;;;;;;;15.20;99.90;;;;;;8398889;28;20704;-79
2022/09/24 12:02:28;;;;;;;;;;;15.20;99.90;;;;;;8403815;28;19953;-78
2022/09/24 12:06:43;;;;;;;;;;;15.20;99.90;;;;;;8408607;28;19920;-79
2022/09/24 12:10:53;;;;;;;;;;;15.20;99.90;;;;;;8399738;28;20275;-78
2022/09/24 12:15:18;;;;;;;;;;;15.20;99.90;;;;;;8405896;28;19964;-79
2022/09/24 12:19:22;;;;;;;;;;;15.30;99.90;;;;;;8427869;27;19920;-79
2022/09/24 12:23:26;;;;;;;;;;;15.30;99.90;;;;;;8403195;28;19924;-79
2022/09/24 12:27:35;;;;;;;;;;;15.20;99.90;;;;;;8407571;28;19962;-79
2022/09/24 12:36:19;;;;;;;;;;;15.10;99.90;;;;;;8394814;28;20380;-79
2022/09/24 12:45:25;;;;;;;;;;;15.10;99.90;;;;;;8396194;28;19978;-78
2022/09/24 12:49:26;;;;;;;;;;;15.00;99.90;;;;;;8405034;28;19950;-79
2022/09/24 12:53:32;;;;;;;;;;;15.00;99.90;;;;;;8400798;28;20357;-79
2022/09/24 12:57:34;;;;;;;;;;;15.00;99.90;;;;;;8428366;27;21026;-79
2022/09/24 13:01:36;;;;;;;;;;;15.00;99.90;;;;;;8399422;28;20376;-78
2022/09/24 13:05:41;;;;;;;;;;;15.10;99.90;;;;;;8395852;28;19943;-79
2022/09/24 13:09:43;;;;;;;;;;;15.10;99.90;;;;;;8415677;28;19946;-78
2022/09/24 13:13:44;;;;;;;;;;;15.10;99.90;;;;;;8395585;28;20241;-79
2022/09/24 13:17:46;;;;;;;;;;;15.10;99.90;;;;;;8395462;28;19920;-79
2022/09/24 13:21:55;;;;;;;;;;;15.10;99.90;;;;;;8401782;28;19926;-79
2022/09/24 13:25:58;;;;;;;;;;;15.00;99.90;;;;;;8393679;28;19934;-79
2022/09/24 13:30:12;;;;;;;;;;;15.00;99.90;;;;;;8405580;28;19955;-79
2022/09/24 13:34:16;;;;;;;;;;;15.00;99.90;;;;;;8407497;28;19924;-79
2022/09/24 13:38:18;;;;;;;;;;;15.00;99.90;;;;;;8405692;28;19928;-79
2022/09/24 13:57:40;;;;;;;;;;;14.90;99.90;;;;;;8398492;28;20370;-79
2022/09/24 14:01:42;;;;;;;;;;;15.00;99.90;;;;;;8403247;28;19978;-79
2022/09/24 14:05:44;;;;;;;;;;;15.00;99.90;;;;;;8436559;27;19978;-79
2022/09/24 14:09:47;;;;;;;;;;;15.00;99.90;;;;;;8403527;28;19931;-79
2022/09/24 14:13:50;;;;;;;;;;;15.10;99.90;;;;;;8412022;28;20359;-79
2022/09/24 14:17:55;;;;;;;;;;;15.10;99.90;;;;;;8401194;28;20013;-79
2022/09/24 14:21:57;;;;;;;;;;;15.10;99.90;;;;;;8402947;28;19920;-79
2022/09/24 14:25:59;;;;;;;;;;;15.10;99.90;;;;;;8406249;28;19924;-79
2022/09/24 14:30:03;;;;;;;;;;;15.10;99.90;;;;;;8438696;27;19927;-78
2022/09/24 14:34:05;;;;;;;;;;;15.20;99.90;;;;;;8398265;28;19928;-79
2022/09/24 14:38:15;;;;;;;;;;;15.20;99.90;;;;;;8401269;28;20375;-79
2022/09/24 14:42:26;;;;;;;;;;;15.20;99.90;;;;;;8399514;28;19926;-79
2022/09/24 14:46:30;;;;;;;;;;;15.20;99.90;;;;;;8403124;28;20259;-78
2022/09/24 14:50:34;;;;;;;;;;;15.20;99.90;;;;;;8403902;28;19949;-79
2022/09/24 14:54:36;;;;;;;;;;;15.20;99.90;;;;;;8390845;28;19938;-78
2022/09/24 14:58:38;;;;;;;;;;;15.30;99.90;;;;;;8409888;28;19926;-78
2022/09/24 15:02:40;;;;;;;;;;;15.30;99.90;;;;;;8396605;28;19928;-79
2022/09/24 15:06:45;;;;;;;;;;;15.30;99.90;;;;;;8407141;28;19951;-79
2022/09/24 15:10:57;;;;;;;;;;;15.30;99.90;;;;;;8404983;28;19931;-79
2022/09/24 15:14:59;;;;;;;;;;;15.30;99.90;;;;;;8401327;28;19919;-79
2022/09/24 15:19:06;;;;;;;;;;;15.30;99.90;;;;;;8398440;28;20023;-78
2022/09/24 15:23:08;;;;;;;;;;;15.30;99.90;;;;;;8401221;28;19930;-78
2022/09/24 15:27:25;;;;;;;;;;;15.40;99.90;;;;;;8399153;28;20015;-78
2022/09/24 15:31:27;;;;;;;;;;;15.40;99.90;;;;;;8400822;28;19944;-78
2022/09/24 15:35:29;;;;;;;;;;;15.40;99.90;;;;;;8399264;28;20282;-78
2022/09/24 15:39:30;;;;;;;;;;;15.40;99.90;;;;;;8399108;28;19930;-79
2022/09/24 15:43:32;;;;;;;;;;;15.40;99.90;;;;;;8398615;28;19974;-79
2022/09/24 15:47:34;;;;;;;;;;;15.40;99.90;;;;;;8397570;28;19931;-79
2022/09/24 15:51:37;;;;;;;;;;;15.40;99.90;;;;;;8394198;28;19935;-79
2022/09/24 15:55:39;;;;;;;;;;;15.40;99.90;;;;;;8400186;28;19920;-79
2022/09/24 15:59:41;;;;;;;;;;;15.40;99.90;;;;;;8405702;28;19931;-79
2022/09/24 16:03:43;;;;;;;;;;;15.40;99.90;;;;;;8394214;28;20259;-79
2022/09/24 16:07:44;;;;;;;;;;;15.40;99.90;;;;;;8402474;28;19931;-79
2022/09/24 16:11:46;;;;;;;;;;;15.40;99.90;;;;;;8394132;28;19947;-78
2022/09/24 16:15:48;;;;;;;;;;;15.40;99.90;;;;;;8397615;28;21963;-79
2022/09/24 16:19:50;;;;;;;;;;;15.40;99.90;;;;;;8406375;28;20410;-78
2022/09/24 16:23:55;;;;;;;;;;;15.40;99.90;;;;;;8393049;28;19930;-79
2022/09/24 16:27:57;;;;;;;;;;;15.40;99.90;;;;;;8422212;27;19966;-79
2022/09/24 16:32:00;;;;;;;;;;;15.40;99.90;;;;;;8396829;28;20363;-78
2022/09/24 16:36:03;;;;;;;;;;;15.40;99.90;;;;;;8403274;28;19998;-78
2022/09/24 16:40:05;;;;;;;;;;;15.30;99.90;;;;;;8396041;28;24407;-79
2022/09/24 16:44:09;;;;;;;;;;;15.30;99.90;;;;;;8396560;28;20027;-79
2022/09/24 16:48:12;;;;;;;;;;;15.30;99.90;;;;;;8426513;27;20409;-79
2022/09/24 16:52:14;;;;;;;;;;;15.30;99.90;;;;;;8392286;28;20006;-78
2022/09/24 16:56:16;;;;;;;;;;;15.30;99.90;;;;;;8397855;28;20442;-78
2022/09/24 17:00:18;;;;;;;;;;;15.30;99.90;;;;;;8397574;28;20010;-78
2022/09/24 17:04:20;;;;;;;;;;;15.30;99.90;;;;;;8394358;28;19942;-79
2022/09/24 17:10:11;;;;;;;;;;;15.30;99.90;;;;;;8402187;28;20284;-79
2022/09/24 17:12:47;;;;;;;;;;;15.30;99.90;;;;;;8402423;28;19924;-78
2022/09/24 17:16:48;;;;;;;;;;;15.30;99.90;;;;;;8399863;28;19932;-79
2022/09/24 17:20:58;;;;;;;;;;;15.30;99.90;;;;;;8392557;28;19924;-79
2022/09/24 17:24:59;;;;;;;;;;;15.30;99.90;;;;;;8427092;27;19927;-79
2022/09/24 17:29:01;;;;;;;;;;;15.30;99.90;;;;;;8394821;28;20283;-79
2022/09/24 17:33:03;;;;;;;;;;;15.30;99.90;;;;;;8394552;28;20269;-79
2022/09/24 17:37:20;;;;;;;;;;;15.20;99.90;;;;;;8402774;28;20006;-78
2022/09/24 17:41:22;;;;;;;;;;;15.20;99.90;;;;;;8391181;28;19927;-78
2022/09/24 17:45:24;;;;;;;;;;;15.20;99.90;;;;;;8394783;28;20007;-79
2022/09/24 17:49:26;;;;;;;;;;;15.20;99.90;;;;;;8394274;28;20410;-79
2022/09/24 17:53:32;;;;;;;;;;;15.10;99.90;;;;;;8392095;28;19928;-78
2022/09/24 17:57:33;;;;;;;;;;;15.10;99.90;;;;;;8392294;28;20015;-79
2022/09/24 18:01:35;;;;;;;;;;;15.10;99.90;;;;;;8393177;28;19929;-79
2022/09/24 18:05:37;;;;;;;;;;;15.10;99.90;;;;;;8404246;28;20451;-78
2022/09/24 18:09:39;;;;;;;;;;;15.00;99.90;;;;;;8385840;28;19954;-79
2022/09/24 18:13:41;;;;;;;;;;;15.00;99.90;;;;;;8418494;28;19928;-78
2022/09/24 18:17:42;;;;;;;;;;;14.90;99.90;;;;;;8399375;28;19930;-79
2022/09/24 18:21:45;;;;;;;;;;;14.90;99.90;;;;;;8401374;28;19920;-78
2022/09/24 18:25:47;;;;;;;;;;;14.90;99.90;;;;;;8394670;28;19920;-79
2022/09/24 18:29:48;;;;;;;;;;;14.80;99.90;;;;;;8395162;28;19932;-79
2022/09/24 18:33:51;;;;;;;;;;;14.80;99.90;;;;;;8391289;28;19920;-79
2022/09/24 18:37:52;;;;;;;;;;;14.80;99.90;;;;;;8391251;28;19928;-79
2022/09/24 18:41:54;;;;;;;;;;;14.70;99.90;;;;;;8394661;28;20352;-78
2022/09/24 18:46:00;;;;;;;;;;;14.70;99.90;;;;;;8398158;28;20042;-79
2022/09/24 18:50:02;;;;;;;;;;;14.70;99.90;;;;;;8403309;28;19927;-79
2022/09/24 18:54:06;;;;;;;;;;;14.60;99.90;;;;;;8403526;28;19920;-79
2022/09/24 18:58:09;;;;;;;;;;;14.60;99.90;;;;;;8395816;28;19928;-79
2022/09/24 19:02:12;;;;;;;;;;;14.60;99.90;;;;;;8432131;27;19924;-78
2022/09/24 19:06:14;;;;;;;;;;;14.60;99.90;;;;;;8400699;28;20324;-79
2022/09/24 19:10:16;;;;;;;;;;;14.60;99.90;;;;;;8416369;28;20493;-79
2022/09/24 19:14:17;;;;;;;;;;;14.50;99.90;;;;;;8402466;28;20314;-79
2022/09/24 19:18:19;;;;;;;;;;;14.40;99.90;;;;;;8396705;28;20584;-79
2022/09/24 19:22:21;;;;;;;;;;;14.40;99.90;;;;;;8401105;28;19942;-79
2022/09/24 19:26:26;;;;;;;;;;;14.30;99.90;;;;;;8392746;28;19926;-79
2022/09/24 19:30:29;;;;;;;;;;;14.30;99.90;;;;;;8401019;28;19946;-79
2022/09/24 19:34:30;;;;;;;;;;;14.30;99.90;;;;;;8394310;28;20279;-78
2022/09/24 19:38:34;;;;;;;;;;;14.20;99.90;;;;;;8400754;28;19971;-79
2022/09/24 19:42:36;;;;;;;;;;;14.20;99.90;;;;;;8435951;27;20391;-79
2022/09/24 19:46:38;;;;;;;;;;;14.20;99.90;;;;;;8394844;28;19978;-79
2022/09/24 19:50:39;;;;;;;;;;;14.10;99.90;;;;;;8391740;28;20314;-79
2022/09/24 19:54:43;;;;;;;;;;;14.10;99.90;;;;;;8393317;28;20116;-79
2022/09/24 19:58:45;;;;;;;;;;;14.00;99.90;;;;;;8393047;28;19930;-79
2022/09/24 20:02:47;;;;;;;;;;;14.00;99.90;;;;;;8390713;28;19920;-79
2022/09/24 20:06:49;;;;;;;;;;;14.00;99.90;;;;;;8399997;28;19964;-79
2022/09/24 20:10:50;;;;;;;;;;;13.90;99.90;;;;;;8394059;28;19921;-79
2022/09/24 20:14:52;;;;;;;;;;;13.90;99.90;;;;;;8389757;28;20366;-79
2022/09/24 20:18:58;;;;;;;;;;;13.90;99.90;;;;;;8399426;28;20320;-79
2022/09/24 20:22:59;;;;;;;;;;;13.90;99.90;;;;;;8394460;28;20371;-79
2022/09/24 20:31:22;;;;;;;;;;;13.80;99.90;;;;;;8397591;28;19924;-79
2022/09/24 20:35:25;;;;;;;;;;;13.80;99.90;;;;;;8397980;28;19927;-79
2022/09/24 20:39:28;;;;;;;;;;;13.80;99.90;;;;;;8410062;28;19921;-79
2022/09/24 20:43:31;;;;;;;;;;;13.70;99.90;;;;;;8396363;28;20035;-79
2022/09/24 20:47:32;;;;;;;;;;;13.70;99.90;;;;;;8402457;28;20363;-79
2022/09/24 20:51:34;;;;;;;;;;;13.70;99.90;;;;;;8386467;28;22558;-78
2022/09/24 20:55:37;;;;;;;;;;;13.60;99.90;;;;;;8389147;28;19931;-78
2022/09/24 20:59:39;;;;;;;;;;;13.60;99.90;;;;;;8389631;28;19928;-79
2022/09/24 21:03:43;;;;;;;;;;;13.60;99.90;;;;;;8398350;28;20288;-79
2022/09/24 21:17:55;;;;;;;;;;;13.50;99.90;;;;;;8393415;28;19919;-79
2022/09/24 21:22:17;;;;;;;;;;;13.40;99.90;;;;;;8409369;28;19928;-78
2022/09/24 21:26:23;;;;;;;;;;;13.40;99.90;;;;;;8443218;27;19920;-79
2022/09/24 21:30:25;;;;;;;;;;;13.40;99.90;;;;;;8418121;28;19926;-79
2022/09/24 21:34:27;;;;;;;;;;;13.30;99.90;;;;;;8412304;28;20444;-79
2022/09/24 21:38:28;;;;;;;;;;;13.30;99.90;;;;;;8418813;28;19951;-79
2022/09/24 21:42:30;;;;;;;;;;;13.30;99.90;;;;;;8405921;28;19920;-79
2022/09/24 21:46:32;;;;;;;;;;;13.20;99.90;;;;;;8396418;28;19957;-79
2022/09/24 21:50:34;;;;;;;;;;;13.20;99.90;;;;;;8419505;28;19928;-79
2022/09/24 21:54:40;;;;;;;;;;;13.20;99.90;;;;;;8397890;28;19920;-79
2022/09/24 21:58:44;;;;;;;;;;;13.10;99.90;;;;;;8396192;28;20014;-79
2022/09/24 22:02:45;;;;;;;;;;;13.00;99.90;;;;;;8396349;28;20309;-79
2022/09/24 22:06:47;;;;;;;;;;;13.00;99.90;;;;;;8404374;28;19974;-78
2022/09/24 22:10:50;;;;;;;;;;;12.90;99.90;;;;;;8409713;28;19924;-79
2022/09/24 22:14:52;;;;;;;;;;;12.90;99.90;;;;;;8405603;28;19928;-79
2022/09/24 22:18:53;;;;;;;;;;;12.90;99.90;;;;;;8392578;28;19924;-79
2022/09/24 22:22:55;;;;;;;;;;;12.80;99.90;;;;;;8408101;28;19942;-79
2022/09/24 22:26:56;;;;;;;;;;;12.80;99.90;;;;;;8412187;28;19938;-79
2022/09/24 22:31:01;;;;;;;;;;;12.80;99.90;;;;;;8429533;28;19934;-78
2022/09/24 22:39:23;;;;;;;;;;;12.60;99.90;;;;;;8404968;28;19926;-79
2022/09/24 22:43:25;;;;;;;;;;;12.60;99.90;;;;;;8405011;28;19942;-79
2022/09/24 22:47:26;;;;;;;;;;;12.60;99.90;;;;;;8420039;28;19924;-79
2022/09/24 22:51:28;;;;;;;;;;;12.60;99.90;;;;;;8421474;28;20011;-79
2022/09/24 22:55:29;;;;;;;;;;;12.50;99.90;;;;;;8414197;28;20430;-79
2022/09/24 22:59:31;;;;;;;;;;;12.50;99.90;;;;;;8428014;28;19924;-79
2022/09/24 23:03:33;;;;;;;;;;;12.50;99.90;;;;;;8423733;28;19920;-79
2022/09/24 23:07:35;;;;;;;;;;;12.40;99.90;;;;;;8412327;28;19920;-79
2022/09/24 23:11:36;;;;;;;;;;;12.40;99.90;;;;;;8415423;28;20007;-79
2022/09/24 23:15:38;;;;;;;;;;;12.40;99.90;;;;;;8409095;28;19921;-79
2022/09/24 23:19:49;;;;;;;;;;;12.30;99.90;;;;;;8419568;28;19927;-79
2022/09/24 23:23:51;;;;;;;;;;;12.30;99.90;;;;;;8414472;28;19930;-79
2022/09/24 23:27:52;;;;;;;;;;;12.30;99.90;;;;;;8416657;28;20382;-79
2022/09/24 23:31:55;;;;;;;;;;;12.30;99.90;;;;;;8434793;28;19923;-79
2022/09/24 23:35:56;;;;;;;;;;;12.20;99.90;;;;;;8425962;28;19924;-79
2022/09/24 23:39:58;;;;;;;;;;;12.20;99.90;;;;;;8407469;28;19920;-79
2022/09/24 23:44:00;;;;;;;;;;;12.20;99.90;;;;;;8413736;28;19927;-79
2022/09/24 23:48:01;;;;;;;;;;;12.10;99.90;;;;;;8419226;28;19919;-79
2022/09/24 23:52:03;;;;;;;;;;;12.10;99.90;;;;;;8423264;28;19928;-79
2022/09/24 23:56:05;;;;;;;;;;;12.10;99.90;;;;;;8424357;28;19924;-79
